createdAt,value
2022-12-11T00:01:57.781Z,28.48
2022-12-11T00:04:24.022Z,30.08
2022-12-11T00:06:50.599Z,28.52
2022-12-11T00:09:17.315Z,30.35
2022-12-11T00:11:43.933Z,31.08
2022-12-11T00:14:10.139Z,31.67
2022-12-11T00:16:36.371Z,30.85
2022-12-11T00:19:03.065Z,28.58
2022-12-11T00:21:29.287Z,32.45
2022-12-11T00:23:55.527Z,30.73
2022-12-11T00:26:21.834Z,31.55
2022-12-11T00:28:48.078Z,33.17
2022-12-11T00:31:15.717Z,30.55
2022-12-11T00:33:42.515Z,31.23
2022-12-11T00:36:12.799Z,32.58
2022-12-11T00:38:39.024Z,30.65
2022-12-11T00:41:05.358Z,33.28
2022-12-11T00:43:31.551Z,35.35
2022-12-11T00:45:57.798Z,35.45
2022-12-11T00:48:23.993Z,33.58
2022-12-11T00:50:50.204Z,34.85
2022-12-11T00:53:16.394Z,35.92
2022-12-11T00:55:42.750Z,35.90
2022-12-11T00:58:09.158Z,33.45
2022-12-11T01:00:35.387Z,34.97
2022-12-11T01:03:01.658Z,35.72
2022-12-11T01:05:28.196Z,36.38
2022-12-11T01:07:54.496Z,35.08
2022-12-11T01:10:26.650Z,33.35
2022-12-11T01:12:55.661Z,34.25
2022-12-11T01:15:23.023Z,31.83
2022-12-11T01:17:49.963Z,33.10
2022-12-11T01:20:16.598Z,34.40
2022-12-11T01:22:42.813Z,34.03
2022-12-11T01:25:12.032Z,31.55
2022-12-11T01:27:38.995Z,32.00
2022-12-11T01:30:07.324Z,32.33
2022-12-11T01:32:34.434Z,32.38
2022-12-11T01:35:02.488Z,30.83
2022-12-11T01:37:28.690Z,31.77
2022-12-11T01:39:54.906Z,29.67
2022-12-11T01:42:21.186Z,28.98
2022-12-11T01:44:47.355Z,30.83
2022-12-11T01:47:13.575Z,30.55
2022-12-11T01:49:41.079Z,31.08
2022-12-11T01:52:19.719Z,30.08
2022-12-11T01:54:46.291Z,30.63
2022-12-11T01:57:13.460Z,30.70
2022-12-11T01:59:41.126Z,29.85
2022-12-11T02:02:10.131Z,30.27
2022-12-11T02:04:37.454Z,32.45
2022-12-11T02:07:04.124Z,33.78
2022-12-11T02:09:32.617Z,31.92
2022-12-11T02:12:03.590Z,30.98
2022-12-11T02:14:35.333Z,29.10
2022-12-11T02:17:07.640Z,30.50
2022-12-11T02:19:51.948Z,28.38
2022-12-11T02:22:44.291Z,28.35
2022-12-11T02:25:21.838Z,28.92
2022-12-11T02:27:57.198Z,28.95
2022-12-11T02:30:23.746Z,29.75
2022-12-11T02:32:56.923Z,29.38
2022-12-11T02:35:28.261Z,27.88
2022-12-11T02:40:22.699Z,29.77
2022-12-11T02:42:50.269Z,25.88
2022-12-11T02:45:17.696Z,27.52
2022-12-11T02:47:45.723Z,26.90
2022-12-11T02:50:13.600Z,26.40
2022-12-11T02:52:41.741Z,26.40
2022-12-11T02:55:09.177Z,25.75
2022-12-11T02:57:53.071Z,25.42
2022-12-11T03:00:19.640Z,24.55
2022-12-11T03:02:46.356Z,25.00
2022-12-11T03:05:13.510Z,26.40
2022-12-11T03:07:40.919Z,26.65
2022-12-11T03:10:08.703Z,25.10
2022-12-11T03:12:37.077Z,27.15
2022-12-11T03:15:05.422Z,26.30
2022-12-11T03:17:50.653Z,26.33
2022-12-11T03:20:26.582Z,25.33
2022-12-11T03:23:13.154Z,26.13
2022-12-11T03:25:51.616Z,25.27
2022-12-11T03:28:29.473Z,25.27
2022-12-11T03:30:56.305Z,23.65
2022-12-11T03:33:29.397Z,23.50
2022-12-11T03:35:56.648Z,23.75
2022-12-11T03:38:36.089Z,23.58
2022-12-11T03:41:04.043Z,23.17
2022-12-11T03:43:31.956Z,22.58
2022-12-11T03:45:59.077Z,22.17
2022-12-11T03:48:28.218Z,22.58
2022-12-11T03:50:54.809Z,22.88
2022-12-11T03:53:21.500Z,23.77
2022-12-11T03:55:48.869Z,23.90
2022-12-11T03:58:15.089Z,22.35
2022-12-11T04:00:41.318Z,23.10
2022-12-11T04:03:14.380Z,23.67
2022-12-11T04:05:42.009Z,22.33
2022-12-11T04:08:08.302Z,23.15
2022-12-11T04:10:34.500Z,23.20
2022-12-11T04:13:00.695Z,21.30
2022-12-11T04:15:26.906Z,22.10
2022-12-11T04:18:11.731Z,20.92
2022-12-11T04:20:56.360Z,23.35
2022-12-11T04:23:41.454Z,23.40
2022-12-11T04:26:09.026Z,21.40
2022-12-11T04:28:35.629Z,20.73
2022-12-11T04:31:01.980Z,22.17
2022-12-11T04:33:28.308Z,20.25
2022-12-11T04:35:54.585Z,19.05
2022-12-11T04:38:20.810Z,18.83
2022-12-11T04:40:47.034Z,20.23
2022-12-11T04:43:13.228Z,19.17
2022-12-11T04:45:39.432Z,19.77
2022-12-11T04:48:05.785Z,19.17
2022-12-11T04:50:32.041Z,18.67
2022-12-11T04:52:58.353Z,20.17
2022-12-11T04:55:24.550Z,18.85
2022-12-11T04:57:50.826Z,19.65
2022-12-11T05:00:17.324Z,19.83
2022-12-11T05:02:43.639Z,18.92
2022-12-11T05:05:11.150Z,18.13
2022-12-11T05:07:37.907Z,18.20
2022-12-11T05:10:04.757Z,18.55
2022-12-11T05:12:32.021Z,18.58
2022-12-11T05:14:58.218Z,19.30
2022-12-11T05:17:24.635Z,19.45
2022-12-11T05:19:51.629Z,19.63
2022-12-11T05:22:18.106Z,19.65
2022-12-11T05:24:44.901Z,18.85
2022-12-11T05:27:11.564Z,20.20
2022-12-11T05:29:37.767Z,19.58
2022-12-11T05:32:04.731Z,19.02
2022-12-11T05:34:30.926Z,18.80
2022-12-11T05:36:57.110Z,19.90
2022-12-11T05:39:23.312Z,18.88
2022-12-11T05:41:49.535Z,18.20
2022-12-11T05:44:15.748Z,19.17
2022-12-11T05:46:42.187Z,17.88
2022-12-11T05:49:10.254Z,19.63
2022-12-11T05:51:36.555Z,18.25
2022-12-11T05:54:03.315Z,19.20
2022-12-11T05:56:31.520Z,18.17
2022-12-11T05:58:58.559Z,19.42
2022-12-11T06:01:29.197Z,19.63
2022-12-11T06:03:56.002Z,19.87
2022-12-11T06:06:22.531Z,18.42
2022-12-11T06:08:52.550Z,19.23
2022-12-11T06:11:23.746Z,18.33
2022-12-11T06:13:50.626Z,18.70
2022-12-11T06:16:16.890Z,18.38
2022-12-11T06:18:44.444Z,18.52
2022-12-11T06:21:14.348Z,19.48
2022-12-11T06:23:41.369Z,18.85
2022-12-11T06:26:08.010Z,19.17
2022-12-11T06:28:34.215Z,18.92
2022-12-11T06:31:00.721Z,19.85
2022-12-11T06:33:26.915Z,19.98
2022-12-11T06:35:53.399Z,19.20
2022-12-11T06:38:19.614Z,20.15
2022-12-11T06:40:45.907Z,19.00
2022-12-11T06:43:12.171Z,20.38
2022-12-11T06:45:38.460Z,19.90
2022-12-11T06:48:04.745Z,20.17
2022-12-11T06:50:30.937Z,19.88
2022-12-11T06:52:57.132Z,20.63
2022-12-11T06:55:23.376Z,20.45
2022-12-11T06:57:49.590Z,19.95
2022-12-11T07:00:16.088Z,20.10
2022-12-11T07:02:42.294Z,20.85
2022-12-11T07:05:09.500Z,21.02
2022-12-11T07:07:35.938Z,20.98
2022-12-11T07:10:07.925Z,21.42
2022-12-11T07:12:34.470Z,21.20
2022-12-11T07:15:00.658Z,20.80
2022-12-11T07:17:28.251Z,21.52
2022-12-11T07:19:54.479Z,21.15
2022-12-11T07:22:20.764Z,20.27
2022-12-11T07:24:47.027Z,20.10
2022-12-11T07:27:13.207Z,20.13
2022-12-11T07:29:39.428Z,22.27
2022-12-11T07:32:05.953Z,20.05
2022-12-11T07:34:32.286Z,21.67
2022-12-11T07:36:58.508Z,18.60
2022-12-11T07:39:24.734Z,19.58
2022-12-11T07:41:50.929Z,18.75
2022-12-11T07:44:17.153Z,19.63
2022-12-11T07:46:43.345Z,19.30
2022-12-11T07:49:09.692Z,20.33
2022-12-11T07:51:36.910Z,18.88
2022-12-11T07:54:08.281Z,19.95
2022-12-11T07:59:01.589Z,19.67
2022-12-11T08:01:28.900Z,19.15
2022-12-11T08:03:55.313Z,18.95
2022-12-11T08:06:25.139Z,19.48
2022-12-11T08:08:51.357Z,18.45
2022-12-11T08:11:17.663Z,18.63
2022-12-11T08:13:44.140Z,19.23
2022-12-11T08:16:13.098Z,18.35
2022-12-11T08:18:40.153Z,19.27
2022-12-11T08:21:07.362Z,18.80
2022-12-11T08:23:33.714Z,19.35
2022-12-11T08:26:01.874Z,18.80
2022-12-11T08:28:28.137Z,19.35
2022-12-11T08:30:54.346Z,18.25
2022-12-11T08:33:20.638Z,18.85
2022-12-11T08:35:47.307Z,19.98
2022-12-11T08:38:13.546Z,18.58
2022-12-11T08:40:39.745Z,19.75
2022-12-11T08:43:05.951Z,19.42
2022-12-11T08:45:32.126Z,18.17
2022-12-11T08:47:58.930Z,19.38
2022-12-11T08:50:25.366Z,20.27
2022-12-11T08:52:51.617Z,19.17
2022-12-11T08:55:17.818Z,19.90
2022-12-11T08:57:44.025Z,19.48
2022-12-11T09:00:12.277Z,20.02
2022-12-11T09:02:38.568Z,19.02
2022-12-11T09:05:07.722Z,20.88
2022-12-11T09:07:34.601Z,18.77
2022-12-11T09:10:01.028Z,21.67
2022-12-11T09:12:27.706Z,20.40
2022-12-11T09:14:53.965Z,19.05
2022-12-11T09:17:20.262Z,19.95
2022-12-11T09:19:46.502Z,19.63
2022-12-11T09:22:13.195Z,20.42
2022-12-11T09:24:39.437Z,20.40
2022-12-11T09:27:06.105Z,20.60
2022-12-11T09:29:32.538Z,20.92
2022-12-11T09:31:58.823Z,21.90
2022-12-11T09:34:29.043Z,20.95
2022-12-11T09:36:55.650Z,21.17
2022-12-11T09:39:21.845Z,20.90
2022-12-11T09:41:50.909Z,21.75
2022-12-11T09:44:29.372Z,20.75
2022-12-11T09:46:56.819Z,20.95
2022-12-11T09:49:25.856Z,22.67
2022-12-11T09:51:56.950Z,24.05
2022-12-11T09:54:23.167Z,23.05
2022-12-11T09:56:59.139Z,22.38
2022-12-11T09:59:31.361Z,22.15
2022-12-11T10:02:00.347Z,22.45
2022-12-11T10:04:33.538Z,23.05
2022-12-11T10:07:02.748Z,23.88
2022-12-11T10:09:28.914Z,23.08
2022-12-11T10:12:02.091Z,24.60
2022-12-11T10:14:40.186Z,25.15
2022-12-11T10:17:15.835Z,22.88
2022-12-11T10:19:42.180Z,25.50
2022-12-11T10:22:13.965Z,24.63
2022-12-11T10:25:10.128Z,24.67
2022-12-11T10:27:33.129Z,24.20
2022-12-11T10:29:59.293Z,23.35
2022-12-11T10:32:27.996Z,26.33
2022-12-11T10:35:02.563Z,24.17
2022-12-11T10:37:28.835Z,25.52
2022-12-11T10:39:55.078Z,24.88
2022-12-11T10:42:22.481Z,24.88
2022-12-11T10:44:59.058Z,25.38
2022-12-11T10:47:25.417Z,25.55
2022-12-11T10:49:55.818Z,25.23
2022-12-11T10:52:23.849Z,25.00
2022-12-11T10:55:03.979Z,24.35
2022-12-11T10:57:31.928Z,27.70
2022-12-11T10:59:58.939Z,27.17
2022-12-11T11:02:30.513Z,29.23
2022-12-11T11:04:57.843Z,28.95
2022-12-11T11:07:25.287Z,29.55
2022-12-11T11:10:02.743Z,30.83
2022-12-11T11:12:29.030Z,32.17
2022-12-11T11:14:59.007Z,32.47
2022-12-11T11:17:25.215Z,32.80
2022-12-11T11:19:51.721Z,32.25
2022-12-11T11:22:19.189Z,32.83
2022-12-11T11:24:56.110Z,32.28
2022-12-11T11:27:27.987Z,36.53
2022-12-11T11:29:55.512Z,36.55
2022-12-11T11:32:23.375Z,35.25
2022-12-11T11:34:49.637Z,34.97
2022-12-11T11:37:29.999Z,34.28
2022-12-11T11:39:59.033Z,35.20
2022-12-11T11:42:44.164Z,35.70
2022-12-11T11:45:16.706Z,33.50
2022-12-11T11:47:50.644Z,34.20
2022-12-11T11:50:25.594Z,34.03
2022-12-11T11:52:55.700Z,31.92
2022-12-11T11:55:42.227Z,32.72
2022-12-11T11:58:15.252Z,33.72
2022-12-11T12:00:41.865Z,34.00
2022-12-11T12:03:19.232Z,31.55
2022-12-11T12:05:48.383Z,30.67
2022-12-11T12:08:28.764Z,31.83
2022-12-11T12:11:16.391Z,31.50
2022-12-11T12:13:54.144Z,29.33
2022-12-11T12:16:52.366Z,30.30
2022-12-11T12:19:28.430Z,27.85
2022-12-11T12:21:54.721Z,26.52
2022-12-11T12:24:20.902Z,25.25
2022-12-11T12:26:51.881Z,26.33
2022-12-11T12:29:29.761Z,25.90
2022-12-11T12:32:09.506Z,27.65
2022-12-11T12:34:54.529Z,25.33
2022-12-11T12:37:29.711Z,25.17
2022-12-11T12:40:19.765Z,25.58
2022-12-11T12:42:54.018Z,24.58
2022-12-11T12:45:38.894Z,26.73
2022-12-11T12:48:06.611Z,26.48
2022-12-11T12:50:38.134Z,26.27
2022-12-11T12:53:05.938Z,25.33
2022-12-11T12:55:33.028Z,29.23
2022-12-11T12:58:00.456Z,29.52
2022-12-11T13:00:26.963Z,27.65
2022-12-11T13:02:53.957Z,28.80
2022-12-11T13:05:24.790Z,27.35
2022-12-11T13:07:54.604Z,27.67
2022-12-11T13:10:25.837Z,27.00
2022-12-11T13:12:52.106Z,27.70
2022-12-11T13:15:30.200Z,30.30
2022-12-11T13:17:56.430Z,27.75
2022-12-11T13:20:23.865Z,28.50
2022-12-11T13:23:10.519Z,27.42
2022-12-11T13:25:47.507Z,26.52
2022-12-11T13:28:24.679Z,27.98
2022-12-11T13:31:02.899Z,27.02
2022-12-11T13:33:30.595Z,25.85
2022-12-11T13:36:15.758Z,24.98
2022-12-11T13:38:46.617Z,25.98
2022-12-11T13:41:13.135Z,26.33
2022-12-11T13:43:41.759Z,26.70
2022-12-11T13:46:10.189Z,24.42
2022-12-11T13:48:43.822Z,25.50
2022-12-11T13:51:14.234Z,26.23
2022-12-11T13:53:40.613Z,23.20
2022-12-11T13:56:07.666Z,24.08
2022-12-11T13:58:34.715Z,25.40
2022-12-11T14:01:20.586Z,23.85
2022-12-11T14:03:53.376Z,25.23
2022-12-11T14:06:19.679Z,23.85
2022-12-11T14:08:48.187Z,23.77
2022-12-11T14:11:22.538Z,23.00
2022-12-11T14:13:49.282Z,23.15
2022-12-11T14:16:22.438Z,23.52
2022-12-11T14:18:49.408Z,23.40
2022-12-11T14:21:19.920Z,24.55
2022-12-11T14:23:54.639Z,22.30
2022-12-11T14:26:22.510Z,26.65
2022-12-11T14:28:48.740Z,25.38
2022-12-11T14:31:16.718Z,24.08
2022-12-11T14:33:51.727Z,20.95
2022-12-11T14:36:18.188Z,21.80
2022-12-11T14:38:47.199Z,21.50
2022-12-11T14:41:16.521Z,21.30
2022-12-11T14:43:43.813Z,21.30
2022-12-11T14:46:23.676Z,20.08
2022-12-11T14:48:57.505Z,20.00
2022-12-11T14:51:28.737Z,18.90
2022-12-11T14:53:55.271Z,20.60
2022-12-11T14:56:23.325Z,19.10
2022-12-11T14:58:53.959Z,19.23
2022-12-11T15:01:34.189Z,20.70
2022-12-11T15:04:05.126Z,20.67
2022-12-11T15:06:33.024Z,20.52
2022-12-11T15:09:17.792Z,20.00
2022-12-11T15:11:44.566Z,20.02
2022-12-11T15:14:12.130Z,22.63
2022-12-11T15:16:40.515Z,22.98
2022-12-11T15:19:07.388Z,22.30
2022-12-11T15:21:34.977Z,21.63
2022-12-11T15:24:05.476Z,21.42
2022-12-11T15:26:36.055Z,21.40
2022-12-11T15:29:03.703Z,23.03
2022-12-11T15:31:31.314Z,23.50
2022-12-11T15:33:57.995Z,22.48
2022-12-11T15:36:24.289Z,22.48
2022-12-11T15:38:50.570Z,20.80
2022-12-11T15:41:17.930Z,22.05
2022-12-11T15:43:44.648Z,22.42
2022-12-11T15:46:10.898Z,22.63
2022-12-11T15:48:37.109Z,22.75
2022-12-11T15:51:03.710Z,21.80
2022-12-11T15:53:29.902Z,22.48
2022-12-11T15:55:57.408Z,22.40
2022-12-11T15:58:24.230Z,22.48
2022-12-11T16:00:50.563Z,23.17
2022-12-11T16:03:18.205Z,24.23
2022-12-11T16:05:44.590Z,24.63
2022-12-11T16:08:15.110Z,23.65
2022-12-11T16:10:43.060Z,23.10
2022-12-11T16:13:09.676Z,23.33
2022-12-11T16:15:37.658Z,22.60
2022-12-11T16:18:08.325Z,25.40
2022-12-11T16:20:35.447Z,24.67
2022-12-11T16:23:01.709Z,24.00
2022-12-11T16:25:27.971Z,24.08
2022-12-11T16:27:58.228Z,24.45
2022-12-11T16:30:24.838Z,24.88
2022-12-11T16:32:51.215Z,24.17
2022-12-11T16:35:18.618Z,25.13
2022-12-11T16:37:45.127Z,24.55
2022-12-11T16:40:11.468Z,25.52
2022-12-11T16:42:38.120Z,25.17
2022-12-11T16:45:08.724Z,25.67
2022-12-11T16:47:35.007Z,24.27
2022-12-11T16:50:01.473Z,24.52
2022-12-11T16:52:28.034Z,25.42
2022-12-11T16:54:54.504Z,24.70
2022-12-11T16:57:20.721Z,24.45
2022-12-11T16:59:47.219Z,25.17
2022-12-11T17:02:13.619Z,25.30
2022-12-11T17:04:40.026Z,25.48
2022-12-11T17:07:06.241Z,24.60
2022-12-11T17:09:32.582Z,25.83
2022-12-11T17:11:58.790Z,22.70
2022-12-11T17:14:24.967Z,24.40
2022-12-11T17:16:51.158Z,24.45
2022-12-11T17:19:17.352Z,24.92
2022-12-11T17:21:48.437Z,24.50
2022-12-11T17:24:17.814Z,25.58
2022-12-11T17:26:44.037Z,24.20
2022-12-11T17:29:11.816Z,24.85
2022-12-11T17:31:38.154Z,23.85
2022-12-11T17:34:04.613Z,23.38
2022-12-11T17:36:30.882Z,23.67
2022-12-11T17:38:57.119Z,24.70
2022-12-11T17:41:23.574Z,23.90
2022-12-11T17:43:50.623Z,22.80
2022-12-11T17:46:17.948Z,23.73
2022-12-11T17:48:44.268Z,22.92
2022-12-11T17:51:12.279Z,24.63
2022-12-11T17:53:38.655Z,24.95
2022-12-11T17:56:05.964Z,25.20
2022-12-11T17:58:32.638Z,25.00
2022-12-11T18:00:59.172Z,24.60
2022-12-11T18:03:26.162Z,26.45
2022-12-11T18:05:54.345Z,23.70
2022-12-11T18:08:22.588Z,24.10
2022-12-11T18:10:48.810Z,24.75
2022-12-11T18:13:15.334Z,24.05
2022-12-11T18:15:41.903Z,23.95
2022-12-11T18:18:08.206Z,26.05
2022-12-11T18:20:34.565Z,24.73
2022-12-11T18:23:01.078Z,25.20
2022-12-11T18:25:27.537Z,25.13
2022-12-11T18:27:55.114Z,24.17
2022-12-11T18:30:21.927Z,25.23
2022-12-11T18:32:48.781Z,26.38
2022-12-11T18:35:15.237Z,26.58
2022-12-11T18:37:42.196Z,24.92
2022-12-11T18:40:08.835Z,25.27
2022-12-11T18:42:35.566Z,25.55
2022-12-11T18:45:02.082Z,24.77
2022-12-11T18:47:28.281Z,25.35
2022-12-11T18:49:54.559Z,28.00
2022-12-11T18:52:20.755Z,27.38
2022-12-11T18:54:47.463Z,27.20
2022-12-11T18:57:13.662Z,26.83
2022-12-11T18:59:39.870Z,28.15
2022-12-11T19:02:06.165Z,28.48
2022-12-11T19:04:32.442Z,25.90
2022-12-11T19:06:59.740Z,27.30
2022-12-11T19:09:26.002Z,27.48
2022-12-11T19:11:52.248Z,27.40
2022-12-11T19:14:18.914Z,27.92
2022-12-11T19:16:47.877Z,26.17
2022-12-11T19:19:18.839Z,27.13
2022-12-11T19:21:45.227Z,25.98
2022-12-11T19:24:12.716Z,26.83
2022-12-11T19:26:38.924Z,26.67
2022-12-11T19:29:05.179Z,28.38
2022-12-11T19:31:31.978Z,26.75
2022-12-11T19:33:58.643Z,26.55
2022-12-11T19:36:26.410Z,27.00
2022-12-11T19:38:56.484Z,27.45
2022-12-11T19:41:27.898Z,26.23
2022-12-11T19:43:54.879Z,25.85
2022-12-11T19:46:21.654Z,25.95
2022-12-11T19:48:48.530Z,25.55
2022-12-11T19:51:16.075Z,25.05
2022-12-11T19:53:42.729Z,25.83
2022-12-11T19:56:09.390Z,23.58
2022-12-11T19:58:35.654Z,24.65
2022-12-11T20:01:02.577Z,24.85
2022-12-11T20:03:29.062Z,23.45
2022-12-11T20:06:02.070Z,25.48
2022-12-11T20:08:44.109Z,25.13
2022-12-11T20:11:17.336Z,24.25
2022-12-11T20:13:45.835Z,23.50
2022-12-11T20:16:12.914Z,23.08
2022-12-11T20:18:39.419Z,24.15
2022-12-11T20:21:07.094Z,23.92
2022-12-11T20:23:34.132Z,24.70
2022-12-11T20:26:05.730Z,24.90
2022-12-11T20:28:31.955Z,24.75
2022-12-11T20:31:03.298Z,26.38
2022-12-11T20:35:55.718Z,26.85
2022-12-11T20:38:21.975Z,24.05
2022-12-11T20:40:48.202Z,23.67
2022-12-11T20:43:14.410Z,23.35
2022-12-11T20:45:40.644Z,25.55
2022-12-11T20:48:06.886Z,25.50
2022-12-11T20:50:33.093Z,24.02
2022-12-11T20:52:59.269Z,24.88
2022-12-11T20:55:25.458Z,25.08
2022-12-11T20:57:53.920Z,23.95
2022-12-11T21:00:20.271Z,23.35
2022-12-11T21:02:49.051Z,26.02
2022-12-11T21:05:15.319Z,25.98
2022-12-11T21:07:41.549Z,25.58
2022-12-11T21:10:07.931Z,25.33
2022-12-11T21:12:34.110Z,25.73
2022-12-11T21:15:00.401Z,25.58
2022-12-11T21:17:26.580Z,25.20
2022-12-11T21:19:52.833Z,24.98
2022-12-11T21:22:19.170Z,25.08
2022-12-11T21:24:45.383Z,24.27
2022-12-11T21:27:11.610Z,24.83
2022-12-11T21:29:37.862Z,24.40
2022-12-11T21:32:04.244Z,24.25
2022-12-11T21:34:30.516Z,24.50
2022-12-11T21:36:57.319Z,24.88
2022-12-11T21:39:24.876Z,24.30
2022-12-11T21:41:51.101Z,24.70
2022-12-11T21:47:03.763Z,23.48
2022-12-11T21:49:30.046Z,22.58
2022-12-11T21:51:56.303Z,22.85
2022-12-11T21:54:22.639Z,22.88
2022-12-11T21:56:48.920Z,21.20
2022-12-11T21:59:15.214Z,23.48
2022-12-11T22:01:42.869Z,23.77
2022-12-11T22:04:09.855Z,23.75
2022-12-11T22:06:36.290Z,23.27
2022-12-11T22:09:03.064Z,24.30
2022-12-11T22:11:31.121Z,23.52
2022-12-11T22:13:57.388Z,23.98
2022-12-11T22:16:23.851Z,23.13
2022-12-11T22:18:50.356Z,24.98
2022-12-11T22:21:16.926Z,22.60
2022-12-11T22:23:43.529Z,22.33
2022-12-11T22:26:11.839Z,22.92
2022-12-11T22:28:38.020Z,23.30
2022-12-11T22:31:04.251Z,22.38
2022-12-11T22:33:30.499Z,22.23
2022-12-11T22:35:57.328Z,22.92
2022-12-11T22:38:24.038Z,22.90
2022-12-11T22:40:50.244Z,23.50
2022-12-11T22:43:16.480Z,24.02
2022-12-11T22:45:42.917Z,23.58
2022-12-11T22:48:09.572Z,22.73
2022-12-11T22:50:36.736Z,23.80
2022-12-11T22:53:03.125Z,22.80
2022-12-11T22:55:29.578Z,23.77
2022-12-11T22:57:55.794Z,22.08
2022-12-11T23:00:22.223Z,22.45
2022-12-11T23:02:48.529Z,23.35
2022-12-11T23:05:15.010Z,22.90
2022-12-11T23:07:41.358Z,23.00
2022-12-11T23:10:08.208Z,23.60
2022-12-11T23:12:34.707Z,23.92
2022-12-11T23:15:01.009Z,24.38
2022-12-11T23:17:27.227Z,24.42
2022-12-11T23:19:53.858Z,22.40
2022-12-11T23:22:20.074Z,22.88
2022-12-11T23:24:46.291Z,23.13
2022-12-11T23:27:12.473Z,22.85
2022-12-11T23:29:39.053Z,23.92
2022-12-11T23:32:05.385Z,23.33
2022-12-11T23:34:31.610Z,23.40
2022-12-11T23:36:57.802Z,23.23
2022-12-11T23:39:24.016Z,23.67
2022-12-11T23:41:50.216Z,23.73
2022-12-11T23:44:16.399Z,23.83
2022-12-11T23:46:44.776Z,23.48
2022-12-11T23:49:11.020Z,22.80
2022-12-11T23:51:37.235Z,21.90
2022-12-11T23:54:03.460Z,21.58
2022-12-11T23:56:29.943Z,24.25
2022-12-11T23:58:57.027Z,21.88
